createdAt,value
2022-09-16T00:00:54.881Z,11.35
2022-09-16T00:03:22.872Z,7.00
2022-09-16T00:05:52.544Z,11.23
2022-09-16T00:08:21.533Z,9.57
2022-09-16T00:10:49.590Z,6.80
2022-09-16T00:13:17.668Z,8.55
2022-09-16T00:15:48.176Z,8.60
2022-09-16T00:18:15.670Z,9.82
2022-09-16T00:20:48.729Z,10.00
2022-09-16T00:23:16.848Z,7.72
2022-09-16T00:25:44.471Z,9.15
2022-09-16T00:28:12.011Z,9.60
2022-09-16T00:30:39.478Z,10.23
2022-09-16T00:33:06.974Z,9.32
2022-09-16T00:35:34.511Z,10.02
2022-09-16T00:38:02.076Z,6.55
2022-09-16T00:40:29.676Z,8.57
2022-09-16T00:42:57.183Z,8.70
2022-09-16T00:45:28.423Z,9.98
2022-09-16T00:48:07.851Z,9.25
2022-09-16T00:50:41.651Z,7.38
2022-09-16T00:53:15.942Z,8.95
2022-09-16T00:55:44.974Z,9.70
2022-09-16T00:58:30.652Z,11.55
2022-09-16T01:00:58.358Z,10.00
2022-09-16T01:03:29.031Z,10.70
2022-09-16T01:05:56.443Z,9.68
2022-09-16T01:08:24.894Z,10.57
2022-09-16T01:10:52.752Z,11.02
2022-09-16T01:13:20.388Z,9.77
2022-09-16T01:15:53.100Z,12.65
2022-09-16T01:18:51.149Z,9.13
2022-09-16T01:21:21.431Z,8.63
2022-09-16T01:23:57.791Z,13.38
2022-09-16T01:26:51.160Z,8.48
2022-09-16T01:29:46.231Z,14.80
2022-09-16T01:32:40.229Z,8.07
2022-09-16T01:35:34.674Z,8.40
2022-09-16T01:38:41.430Z,12.70
2022-09-16T01:41:42.753Z,12.27
2022-09-16T01:44:31.497Z,7.35
2022-09-16T01:47:04.666Z,9.60
2022-09-16T01:49:58.479Z,11.75
2022-09-16T01:55:05.722Z,9.35
2022-09-16T01:57:48.442Z,9.90
2022-09-16T02:00:16.736Z,16.77
2022-09-16T02:02:59.578Z,10.13
2022-09-16T02:05:33.634Z,13.90
2022-09-16T02:08:09.111Z,9.57
2022-09-16T02:10:43.461Z,12.15
2022-09-16T02:13:25.983Z,10.52
2022-09-16T02:15:56.340Z,8.65
2022-09-16T02:18:33.125Z,10.63
2022-09-16T02:21:05.681Z,12.02
2022-09-16T02:23:40.386Z,8.30
2022-09-16T02:26:11.916Z,12.13
2022-09-16T02:28:43.283Z,11.85
2022-09-16T02:31:14.322Z,9.05
2022-09-16T02:33:56.451Z,12.30
2022-09-16T02:36:26.419Z,7.57
2022-09-16T02:39:00.893Z,9.20
2022-09-16T02:41:28.653Z,9.77
2022-09-16T02:43:56.366Z,9.25
2022-09-16T02:46:57.720Z,7.57
2022-09-16T02:49:44.424Z,10.20
2022-09-16T02:52:17.184Z,10.38
2022-09-16T02:55:00.887Z,8.38
2022-09-16T02:57:29.060Z,7.57
2022-09-16T02:59:56.964Z,10.50
2022-09-16T03:02:25.558Z,7.88
2022-09-16T03:04:53.059Z,8.95
2022-09-16T03:07:20.502Z,8.25
2022-09-16T03:09:50.251Z,8.90
2022-09-16T03:13:00.227Z,8.48
2022-09-16T03:16:03.246Z,9.88
2022-09-16T03:18:42.613Z,13.95
2022-09-16T03:21:21.613Z,9.55
2022-09-16T03:24:09.519Z,11.63
2022-09-16T03:27:09.819Z,8.30
2022-09-16T03:29:53.206Z,5.35
2022-09-16T03:32:25.698Z,8.13
2022-09-16T03:35:01.100Z,10.75
2022-09-16T03:37:34.371Z,11.00
2022-09-16T03:40:09.724Z,8.38
2022-09-16T03:42:42.222Z,10.60
2022-09-16T03:45:20.983Z,11.60
2022-09-16T03:47:50.848Z,6.40
2022-09-16T03:50:20.376Z,11.95
2022-09-16T03:52:47.954Z,8.18
2022-09-16T03:55:17.048Z,8.85
2022-09-16T03:57:44.737Z,8.20
2022-09-16T04:00:12.811Z,9.75
2022-09-16T04:02:40.432Z,11.07
2022-09-16T04:05:09.015Z,12.93
2022-09-16T04:07:36.906Z,9.60
2022-09-16T04:10:06.194Z,9.25
2022-09-16T04:12:34.013Z,10.07
2022-09-16T04:15:01.450Z,9.13
2022-09-16T04:17:31.927Z,11.93
2022-09-16T04:19:59.563Z,8.77
2022-09-16T04:22:31.280Z,12.88
2022-09-16T04:24:58.683Z,9.52
2022-09-16T04:27:26.114Z,6.70
2022-09-16T04:29:53.674Z,8.65
2022-09-16T04:32:21.586Z,7.22
2022-09-16T04:34:48.959Z,8.27
2022-09-16T04:37:16.342Z,11.27
2022-09-16T04:39:43.834Z,9.05
2022-09-16T04:42:12.675Z,12.50
2022-09-16T04:44:40.122Z,9.73
2022-09-16T04:47:07.654Z,12.77
2022-09-16T04:49:35.113Z,13.02
2022-09-16T04:52:02.837Z,7.40
2022-09-16T04:54:30.339Z,13.10
2022-09-16T04:56:57.838Z,12.27
2022-09-16T04:59:25.187Z,10.55
2022-09-16T05:01:53.106Z,12.23
2022-09-16T05:04:20.638Z,9.13
2022-09-16T05:06:48.369Z,10.70
2022-09-16T05:09:15.948Z,11.07
2022-09-16T05:11:43.501Z,13.13
2022-09-16T05:14:15.825Z,15.13
2022-09-16T05:16:44.337Z,12.30
2022-09-16T05:19:13.606Z,10.20
2022-09-16T05:21:41.766Z,12.95
2022-09-16T05:24:12.082Z,11.02
2022-09-16T05:26:42.091Z,10.88
2022-09-16T05:29:15.894Z,11.55
2022-09-16T05:31:47.401Z,11.02
2022-09-16T05:34:21.542Z,15.40
2022-09-16T05:36:50.823Z,9.50
2022-09-16T05:39:26.201Z,13.27
2022-09-16T05:41:56.565Z,12.40
2022-09-16T05:44:25.184Z,13.32
2022-09-16T05:46:53.088Z,13.13
2022-09-16T05:49:21.224Z,21.75
2022-09-16T05:51:50.292Z,21.17
2022-09-16T05:54:18.900Z,18.63
2022-09-16T05:56:47.680Z,19.63
2022-09-16T05:59:16.685Z,16.85
2022-09-16T06:01:44.896Z,12.90
2022-09-16T06:04:15.313Z,11.80
2022-09-16T06:06:45.486Z,12.13
2022-09-16T06:09:19.675Z,11.02
2022-09-16T06:11:50.485Z,13.45
2022-09-16T06:14:19.604Z,13.75
2022-09-16T06:16:47.390Z,9.77
2022-09-16T06:19:17.277Z,11.65
2022-09-16T06:21:45.888Z,10.65
2022-09-16T06:24:15.068Z,10.77
2022-09-16T06:26:45.038Z,8.13
2022-09-16T06:29:13.360Z,8.13
2022-09-16T06:31:41.583Z,11.90
2022-09-16T06:34:14.468Z,8.75
2022-09-16T06:36:45.149Z,12.82
2022-09-16T06:39:15.307Z,11.07
2022-09-16T06:41:43.325Z,12.35
2022-09-16T06:44:10.799Z,11.27
2022-09-16T06:46:38.830Z,7.82
2022-09-16T06:49:06.842Z,9.88
2022-09-16T06:51:36.106Z,8.52
2022-09-16T06:54:07.096Z,13.15
2022-09-16T06:56:37.746Z,17.02
2022-09-16T06:59:05.897Z,9.00
2022-09-16T07:01:33.910Z,9.63
2022-09-16T07:04:07.444Z,7.55
2022-09-16T07:09:22.826Z,8.93
2022-09-16T07:11:50.340Z,9.93
2022-09-16T07:14:18.181Z,10.32
2022-09-16T07:16:45.821Z,10.48
2022-09-16T07:19:13.583Z,9.23
2022-09-16T07:21:41.765Z,8.63
2022-09-16T07:24:12.239Z,10.48
2022-09-16T07:26:41.560Z,10.63
2022-09-16T07:29:12.225Z,10.10
2022-09-16T07:31:40.237Z,9.00
2022-09-16T07:34:09.852Z,6.72
2022-09-16T07:36:48.951Z,17.48
2022-09-16T07:39:19.176Z,12.00
2022-09-16T07:41:48.705Z,14.50
2022-09-16T07:44:18.810Z,10.65
2022-09-16T07:46:46.597Z,12.65
2022-09-16T07:49:15.102Z,15.02
2022-09-16T07:51:45.641Z,15.80
2022-09-16T07:54:16.607Z,13.20
2022-09-16T07:56:45.046Z,18.52
2022-09-16T07:59:18.329Z,13.88
2022-09-16T08:01:50.018Z,16.70
2022-09-16T08:04:19.515Z,18.80
2022-09-16T08:06:47.271Z,19.95
2022-09-16T08:12:05.069Z,11.57
2022-09-16T08:14:33.423Z,9.50
2022-09-16T08:17:02.050Z,14.15
2022-09-16T08:19:29.615Z,11.63
2022-09-16T08:21:56.997Z,9.32
2022-09-16T08:24:24.396Z,9.70
2022-09-16T08:26:52.014Z,17.30
2022-09-16T08:29:19.604Z,10.63
2022-09-16T08:31:48.423Z,8.90
2022-09-16T08:34:16.889Z,12.77
2022-09-16T08:36:44.317Z,11.63
2022-09-16T08:39:12.086Z,10.38
2022-09-16T08:41:42.233Z,13.18
2022-09-16T08:44:27.538Z,12.10
2022-09-16T08:47:02.848Z,14.43
2022-09-16T08:49:35.925Z,9.60
2022-09-16T08:52:17.232Z,9.82
2022-09-16T08:54:57.785Z,14.02
2022-09-16T08:57:29.546Z,9.98
2022-09-16T09:00:07.385Z,10.38
2022-09-16T09:02:53.868Z,8.98
2022-09-16T09:05:32.587Z,12.48
2022-09-16T09:08:12.057Z,10.98
2022-09-16T09:10:51.056Z,12.63
2022-09-16T09:13:59.899Z,12.23
2022-09-16T09:16:47.731Z,13.70
2022-09-16T09:19:41.662Z,13.45
2022-09-16T09:22:13.782Z,15.43
2022-09-16T09:25:06.586Z,16.23
2022-09-16T09:27:36.949Z,16.10
2022-09-16T09:30:11.466Z,9.35
2022-09-16T09:32:49.115Z,16.42
2022-09-16T09:35:22.772Z,16.02
2022-09-16T09:37:59.279Z,14.73
2022-09-16T09:40:42.392Z,17.05
2022-09-16T09:43:15.750Z,14.35
2022-09-16T09:45:45.280Z,10.52
2022-09-16T09:48:25.173Z,11.95
2022-09-16T09:50:53.979Z,15.02
2022-09-16T09:53:35.991Z,15.18
2022-09-16T09:56:23.898Z,13.60
2022-09-16T09:58:53.893Z,19.60
2022-09-16T10:01:21.878Z,15.32
2022-09-16T10:03:51.784Z,17.63
2022-09-16T10:06:26.390Z,10.93
2022-09-16T10:08:58.154Z,16.48
2022-09-16T10:11:31.308Z,17.67
2022-09-16T10:16:39.190Z,10.07
2022-09-16T10:19:25.683Z,12.45
2022-09-16T10:21:55.489Z,12.40
2022-09-16T10:24:25.952Z,12.82
2022-09-16T10:26:54.073Z,9.68
2022-09-16T10:29:21.606Z,17.88
2022-09-16T10:31:49.674Z,12.13
2022-09-16T10:34:34.001Z,14.10
2022-09-16T10:37:04.130Z,11.90
2022-09-16T10:39:32.598Z,13.15
2022-09-16T10:42:00.644Z,11.13
2022-09-16T10:44:34.200Z,12.20
2022-09-16T10:47:09.388Z,10.25
2022-09-16T10:49:46.890Z,14.45
2022-09-16T10:52:18.500Z,13.93
2022-09-16T10:54:46.535Z,12.07
2022-09-16T10:57:29.939Z,15.23
2022-09-16T11:00:17.990Z,18.60
2022-09-16T11:03:06.684Z,15.95
2022-09-16T11:06:01.245Z,9.80
2022-09-16T11:08:56.338Z,11.60
2022-09-16T11:11:45.174Z,11.65
2022-09-16T11:14:40.440Z,13.95
2022-09-16T11:17:15.813Z,13.90
2022-09-16T11:20:00.859Z,13.90
2022-09-16T11:22:53.992Z,9.30
2022-09-16T11:25:27.487Z,11.88
2022-09-16T11:28:00.872Z,15.13
2022-09-16T11:30:34.136Z,11.95
2022-09-16T11:33:17.311Z,10.93
2022-09-16T11:39:15.497Z,10.68
2022-09-16T11:41:55.314Z,14.90
2022-09-16T11:44:47.892Z,12.25
2022-09-16T11:47:27.628Z,9.20
2022-09-16T11:50:07.475Z,9.98
2022-09-16T11:53:04.015Z,12.98
2022-09-16T11:55:54.144Z,11.60
2022-09-16T11:58:33.294Z,12.95
2022-09-16T12:04:02.118Z,12.15
2022-09-16T12:06:39.445Z,16.83
2022-09-16T12:09:14.123Z,14.50
2022-09-16T12:11:52.942Z,11.23
2022-09-16T12:14:28.667Z,11.68
2022-09-16T12:17:12.583Z,11.30
2022-09-16T12:19:52.520Z,12.18
2022-09-16T12:22:30.174Z,11.45
2022-09-16T12:25:12.607Z,10.13
2022-09-16T12:27:58.659Z,11.93
2022-09-16T12:30:36.974Z,12.57
2022-09-16T12:33:18.994Z,12.80
2022-09-16T12:36:05.520Z,12.45
2022-09-16T12:38:33.355Z,9.15
2022-09-16T12:41:49.685Z,11.23
2022-09-16T12:44:35.883Z,14.48
2022-09-16T12:47:37.080Z,7.13
2022-09-16T12:50:28.351Z,9.95
2022-09-16T12:53:02.296Z,12.05
2022-09-16T12:55:38.707Z,12.57
2022-09-16T12:58:16.714Z,8.77
2022-09-16T13:00:58.981Z,10.70
2022-09-16T13:03:29.553Z,10.25
2022-09-16T13:06:06.102Z,8.50
2022-09-16T13:08:35.299Z,12.65
2022-09-16T13:13:59.844Z,11.15
2022-09-16T13:16:36.558Z,9.40
2022-09-16T13:19:54.591Z,9.45
2022-09-16T13:22:31.613Z,15.02
2022-09-16T13:25:11.590Z,8.88
2022-09-16T13:27:41.149Z,17.60
2022-09-16T13:30:08.443Z,7.80
2022-09-16T13:32:46.222Z,8.35
2022-09-16T13:35:16.587Z,13.30
2022-09-16T13:37:45.064Z,11.63
2022-09-16T13:40:30.324Z,14.45
2022-09-16T13:43:37.654Z,11.40
2022-09-16T13:46:10.774Z,8.48
2022-09-16T13:48:45.386Z,10.35
2022-09-16T13:51:20.062Z,8.88
2022-09-16T13:53:51.002Z,7.57
2022-09-16T13:56:40.266Z,10.95
2022-09-16T13:59:32.204Z,10.23
2022-09-16T14:02:18.328Z,9.90
2022-09-16T14:05:04.961Z,11.50
2022-09-16T14:07:44.318Z,9.93
2022-09-16T14:10:14.578Z,10.98
2022-09-16T14:12:54.691Z,10.65
2022-09-16T14:15:23.484Z,9.55
2022-09-16T14:17:56.402Z,12.73
2022-09-16T14:20:25.652Z,11.13
2022-09-16T14:23:04.302Z,11.75
2022-09-16T14:25:36.333Z,11.38
2022-09-16T14:28:23.987Z,11.57
2022-09-16T14:31:00.465Z,12.00
2022-09-16T14:33:37.854Z,12.82
2022-09-16T14:36:20.762Z,7.90
2022-09-16T14:38:57.668Z,9.43
2022-09-16T14:41:37.893Z,7.68
2022-09-16T14:44:26.479Z,8.30
2022-09-16T14:47:09.258Z,15.27
2022-09-16T14:49:41.878Z,9.60
2022-09-16T14:52:23.988Z,6.95
2022-09-16T14:54:52.083Z,8.95
2022-09-16T14:57:24.839Z,10.80
2022-09-16T15:00:02.769Z,6.13
2022-09-16T15:02:41.299Z,10.20
2022-09-16T15:05:34.244Z,7.00
2022-09-16T15:08:19.654Z,9.30
2022-09-16T15:10:54.695Z,6.13
2022-09-16T15:13:27.011Z,12.50
2022-09-16T15:16:08.837Z,11.40
2022-09-16T15:18:38.838Z,8.18
2022-09-16T15:21:20.718Z,9.55
2022-09-16T15:23:53.391Z,9.15
2022-09-16T15:26:46.406Z,10.00
2022-09-16T15:29:18.825Z,10.30
2022-09-16T15:31:47.202Z,6.72
2022-09-16T15:34:23.503Z,10.55
2022-09-16T15:36:59.099Z,7.78
2022-09-16T15:39:30.785Z,8.38
2022-09-16T15:42:18.331Z,9.15
2022-09-16T15:44:56.644Z,9.13
2022-09-16T15:47:37.752Z,7.85
2022-09-16T15:50:21.242Z,7.38
2022-09-16T15:53:01.258Z,9.57
2022-09-16T15:55:31.475Z,11.68
2022-09-16T15:58:25.853Z,7.10
2022-09-16T16:00:57.310Z,9.75
2022-09-16T16:03:24.999Z,7.68
2022-09-16T16:05:54.217Z,9.50
2022-09-16T16:09:00.423Z,14.32
2022-09-16T16:11:27.949Z,9.35
2022-09-16T16:13:59.824Z,9.85
2022-09-16T16:16:29.556Z,13.57
2022-09-16T16:18:59.269Z,9.70
2022-09-16T16:21:26.566Z,8.43
2022-09-16T16:23:54.008Z,11.05
2022-09-16T16:26:24.865Z,13.68
2022-09-16T16:28:52.276Z,9.82
2022-09-16T16:31:19.775Z,10.68
2022-09-16T16:33:48.139Z,9.15
2022-09-16T16:36:18.265Z,8.93
2022-09-16T16:38:46.494Z,9.52
2022-09-16T16:41:20.627Z,6.38
2022-09-16T16:43:49.392Z,9.00
2022-09-16T16:46:17.914Z,12.65
2022-09-16T16:48:45.566Z,11.30
2022-09-16T16:51:13.633Z,9.35
2022-09-16T16:53:41.148Z,7.85
2022-09-16T16:56:14.845Z,8.63
2022-09-16T16:58:45.791Z,11.23
2022-09-16T17:01:18.925Z,7.15
2022-09-16T17:03:49.899Z,11.82
2022-09-16T17:06:18.412Z,10.07
2022-09-16T17:08:45.829Z,9.35
2022-09-16T17:11:19.699Z,9.45
2022-09-16T17:13:50.201Z,15.05
2022-09-16T17:16:24.570Z,9.15
2022-09-16T17:18:52.835Z,6.88
2022-09-16T17:21:26.441Z,10.57
2022-09-16T17:23:54.054Z,8.80
2022-09-16T17:26:23.289Z,11.93
2022-09-16T17:28:52.501Z,8.80
2022-09-16T17:31:24.539Z,9.00
2022-09-16T17:34:05.493Z,11.90
2022-09-16T17:36:35.097Z,10.27
2022-09-16T17:39:05.463Z,9.30
2022-09-16T17:41:32.998Z,9.00
2022-09-16T17:44:05.539Z,8.25
2022-09-16T17:46:33.947Z,11.98
2022-09-16T17:49:11.374Z,7.68
2022-09-16T17:51:39.069Z,8.50
2022-09-16T17:54:06.871Z,8.90
2022-09-16T17:56:34.469Z,9.30
2022-09-16T17:59:02.320Z,9.52
2022-09-16T18:01:30.773Z,8.23
2022-09-16T18:03:58.462Z,7.97
2022-09-16T18:06:31.908Z,12.73
2022-09-16T18:09:00.593Z,9.23
2022-09-16T18:11:28.538Z,10.68
2022-09-16T18:13:58.242Z,11.18
2022-09-16T18:16:27.011Z,9.77
2022-09-16T18:18:56.895Z,8.75
2022-09-16T18:21:25.373Z,9.80
2022-09-16T18:23:56.324Z,8.82
2022-09-16T18:26:24.586Z,6.30
2022-09-16T18:29:10.486Z,10.98
2022-09-16T18:31:41.662Z,10.23
2022-09-16T18:34:09.961Z,9.38
2022-09-16T18:36:39.213Z,12.13
2022-09-16T18:39:10.219Z,7.45
2022-09-16T18:41:39.681Z,14.10
2022-09-16T18:44:12.921Z,6.15
2022-09-16T18:49:09.746Z,10.48
2022-09-16T18:51:44.343Z,13.40
2022-09-16T18:54:19.365Z,12.45
2022-09-16T18:56:46.771Z,10.52
2022-09-16T18:59:21.600Z,8.15
2022-09-16T19:01:51.741Z,14.38
2022-09-16T19:04:22.434Z,8.25
2022-09-16T19:06:52.878Z,8.50
2022-09-16T19:09:22.875Z,11.27
2022-09-16T19:11:52.807Z,12.20
2022-09-16T19:14:24.219Z,9.35
2022-09-16T19:16:52.076Z,10.88
2022-09-16T19:19:21.223Z,11.32
2022-09-16T19:21:49.173Z,12.48
2022-09-16T19:24:19.417Z,10.55
2022-09-16T19:26:48.359Z,9.35
2022-09-16T19:29:17.110Z,12.32
2022-09-16T19:31:47.443Z,12.23
2022-09-16T19:34:16.416Z,12.50
2022-09-16T19:36:44.280Z,9.27
2022-09-16T19:39:13.103Z,12.23
2022-09-16T19:41:42.091Z,9.68
2022-09-16T19:44:16.328Z,7.50
2022-09-16T19:46:46.932Z,8.65
2022-09-16T19:49:20.494Z,7.68
2022-09-16T19:51:49.390Z,7.88
2022-09-16T19:54:17.940Z,13.45
2022-09-16T19:56:50.076Z,8.93
2022-09-16T19:59:19.038Z,10.18
2022-09-16T20:01:47.926Z,7.05
2022-09-16T20:04:19.913Z,8.85
2022-09-16T20:06:48.207Z,9.27
2022-09-16T20:09:17.002Z,9.98
2022-09-16T20:11:46.961Z,8.82
2022-09-16T20:14:20.607Z,6.82
2022-09-16T20:16:49.989Z,7.70
2022-09-16T20:19:19.249Z,8.07
2022-09-16T20:21:47.346Z,4.45
2022-09-16T20:24:18.513Z,6.47
2022-09-16T20:26:50.415Z,4.63
2022-09-16T20:29:18.835Z,2.60
2022-09-16T20:31:48.642Z,4.03
2022-09-16T20:34:16.881Z,2.97
2022-09-16T20:36:46.062Z,4.35
2022-09-16T20:39:14.848Z,2.30
2022-09-16T20:41:43.613Z,3.10
2022-09-16T20:44:15.676Z,2.60
2022-09-16T20:46:43.801Z,5.43
2022-09-16T20:49:15.840Z,3.40
2022-09-16T20:51:43.739Z,3.95
2022-09-16T20:54:14.156Z,7.18
2022-09-16T20:56:44.076Z,6.10
2022-09-16T20:59:14.178Z,4.50
2022-09-16T21:04:15.396Z,3.03
2022-09-16T21:09:14.176Z,2.50
2022-09-16T21:11:44.778Z,3.58
2022-09-16T21:14:16.562Z,2.83
2022-09-16T21:16:46.114Z,4.20
2022-09-16T21:19:14.718Z,3.90
2022-09-16T21:21:44.650Z,2.88
2022-09-16T21:24:13.207Z,2.47
2022-09-16T21:26:41.420Z,1.80
2022-09-16T21:29:17.638Z,1.70
2022-09-16T21:31:45.614Z,2.20
2022-09-16T21:34:16.074Z,2.08
2022-09-16T21:36:44.879Z,2.22
2022-09-16T21:39:14.230Z,3.22
2022-09-16T21:41:43.270Z,4.05
2022-09-16T21:44:11.647Z,4.80
2022-09-16T21:46:45.318Z,2.35
2022-09-16T21:49:28.980Z,1.70
2022-09-16T21:51:58.605Z,2.80
2022-09-16T21:54:28.045Z,2.22
2022-09-16T21:56:55.912Z,3.58
2022-09-16T21:59:23.828Z,2.38
2022-09-16T22:01:52.318Z,1.60
2022-09-16T22:04:22.730Z,2.33
2022-09-16T22:06:52.844Z,3.53
2022-09-16T22:09:20.576Z,1.73
2022-09-16T22:11:48.456Z,3.97
2022-09-16T22:14:16.443Z,3.42
2022-09-16T22:16:44.200Z,2.05
2022-09-16T22:19:15.880Z,2.38
2022-09-16T22:21:45.343Z,5.35
2022-09-16T22:24:13.640Z,2.22
2022-09-16T22:26:41.409Z,2.58
2022-09-16T22:29:10.410Z,4.82
2022-09-16T22:31:39.580Z,1.20
2022-09-16T22:34:08.012Z,2.05
2022-09-16T22:36:37.490Z,3.28
2022-09-16T22:39:10.829Z,2.95
2022-09-16T22:44:06.199Z,1.75
2022-09-16T22:46:40.800Z,0.93
2022-09-16T22:49:08.638Z,2.67
2022-09-16T22:51:36.236Z,1.23
2022-09-16T22:54:04.364Z,1.52
2022-09-16T22:56:33.603Z,0.43
2022-09-16T22:59:02.950Z,0.95
2022-09-16T23:01:38.822Z,1.65
2022-09-16T23:04:07.783Z,2.65
2022-09-16T23:06:37.290Z,0.40
2022-09-16T23:09:06.844Z,1.30
2022-09-16T23:11:35.293Z,1.38
2022-09-16T23:14:04.141Z,2.25
2022-09-16T23:16:34.366Z,0.55
2022-09-16T23:19:05.860Z,0.10
2022-09-16T23:21:34.026Z,0.30
2022-09-16T23:24:03.228Z,1.25
2022-09-16T23:26:33.564Z,1.42
2022-09-16T23:29:03.071Z,1.38
2022-09-16T23:31:33.166Z,1.30
2022-09-16T23:34:01.128Z,0.25
2022-09-16T23:36:28.822Z,0.47
2022-09-16T23:38:56.495Z,1.08
2022-09-16T23:41:28.033Z,1.65
2022-09-16T23:43:56.733Z,0.50
2022-09-16T23:46:28.796Z,2.25
2022-09-16T23:48:56.647Z,3.42
2022-09-16T23:51:28.322Z,0.68
2022-09-16T23:53:57.687Z,0.32
2022-09-16T23:56:25.830Z,0.15
2022-09-16T23:58:53.907Z,1.88
